Time;durP1;ratioP1;P1;durP2;ratioP2;P2;SDS_P1;SDS_P2;PMS_P1;PMS_P2;Temp;Humidity;BMP_temperature;BMP_pressure;BME280_temperature;BME280_humidity;BME280_pressure;Samples;Min_cycle;Max_cycle;Signal;HPM_P1;HPM_P2
2023/11/05 00:02:11;;;;;;;;;;;12.60;61.10;;;8.19;81.22;92502.94;4902694;29;19911;-49
2023/11/05 00:04:36;;;;;;;;;;;12.60;61.00;;;8.20;81.56;92490.44;4904681;29;20271;-50
2023/11/05 00:07:02;;;;;;;;;;;12.60;61.00;;;8.19;81.57;92483.59;4905396;29;19954;-52
2023/11/05 00:09:28;;;;;;;;;;;12.50;60.80;;;8.18;80.90;92480.19;4906115;29;19919;-51
2023/11/05 00:11:54;;;;;;;;;;;12.50;60.70;;;8.12;80.64;92478.81;4907635;29;19962;-51
2023/11/05 00:14:20;;;;;;;;;;;12.50;60.60;;;8.12;80.89;92478.81;4904648;29;20366;-52
2023/11/05 00:16:46;;;;;;;;;;;12.50;60.50;;;8.12;80.89;92481.47;4906019;29;19923;-56
2023/11/05 00:19:12;;;;;;;;;;;12.50;60.40;;;8.13;81.08;92482.25;4926995;29;20274;-51
2023/11/05 00:21:38;;;;;;;;;;;12.50;60.30;;;8.08;80.78;92454.84;4906031;29;19915;-50
2023/11/05 00:24:04;;;;;;;;;;;12.40;60.20;;;8.04;79.52;92456.56;4911247;29;19911;-49
2023/11/05 00:26:30;;;;;;;;;;;12.50;60.30;;;8.02;79.81;92452.69;4906419;29;19972;-51
2023/11/05 00:28:55;;;;;;;;;;;12.40;60.20;;;7.98;80.84;92449.13;4912884;29;20441;-52
2023/11/05 00:31:21;;;;;;;;;;;12.40;60.20;;;7.92;80.80;92447.78;4914802;29;19910;-51
2023/11/05 00:33:48;;;;;;;;;;;12.40;60.20;;;7.86;81.03;92442.66;4914169;29;19914;-51
2023/11/05 00:36:13;;;;;;;;;;;12.30;60.10;;;7.83;81.75;92432.72;4913960;29;19918;-47
2023/11/05 00:38:39;;;;;;;;;;;12.30;60.10;;;7.77;81.83;92427.91;4915076;29;20289;-48
2023/11/05 00:41:05;;;;;;;;;;;12.20;60.20;;;7.69;82.66;92421.59;4913868;29;19917;-48
2023/11/05 00:43:31;;;;;;;;;;;12.20;60.10;;;7.61;82.50;92404.66;4915007;29;19917;-51
2023/11/05 00:45:57;;;;;;;;;;;12.10;60.10;;;7.54;83.40;92401.75;4913726;29;19914;-51
2023/11/05 00:48:22;;;;;;;;;;;12.10;60.20;;;7.40;84.49;92396.72;4914718;29;19911;-54
2023/11/05 00:50:48;;;;;;;;;;;12.00;60.20;;;7.26;85.45;92406.75;4914880;29;19911;-52
2023/11/05 00:53:14;;;;;;;;;;;11.90;60.10;;;7.19;86.41;92401.97;4914028;29;19965;-49
2023/11/05 00:55:40;;;;;;;;;;;11.80;60.30;;;7.08;87.60;92406.09;4914266;29;19910;-53
2023/11/05 00:58:06;;;;;;;;;;;11.70;60.30;;;6.99;87.15;92413.31;4914138;29;20477;-52
2023/11/05 01:00:32;;;;;;;;;;;11.60;60.40;;;6.96;87.73;92408.66;4914674;29;20022;-51
2023/11/05 01:02:58;;;;;;;;;;;11.60;60.50;;;6.96;87.79;92408.66;4914654;29;20277;-50
2023/11/05 01:05:23;;;;;;;;;;;11.50;61.40;;;6.90;88.96;92410.69;4912294;29;19921;-48
2023/11/05 01:07:49;;;;;;;;;;;11.50;60.70;;;6.89;89.22;92395.91;4914510;29;19915;-51
2023/11/05 01:10:15;;;;;;;;;;;11.50;60.80;;;6.85;89.88;92391.56;4914150;29;20278;-50
2023/11/05 01:12:41;;;;;;;;;;;11.40;60.80;;;6.72;91.84;92380.09;4914642;29;19911;-50
2023/11/05 01:15:08;;;;;;;;;;;11.30;60.80;;;6.47;94.34;92381.75;4914116;29;19910;-51
2023/11/05 01:17:34;;;;;;;;;;;11.30;60.70;;;6.30;95.55;92363.28;4913600;29;19918;-52
2023/11/05 01:20:00;;;;;;;;;;;11.10;60.70;;;6.20;96.10;92354.59;4914285;29;19911;-51
2023/11/05 01:22:26;;;;;;;;;;;11.00;60.80;;;6.14;96.06;92350.59;4913731;29;19915;-50
2023/11/05 01:24:52;;;;;;;;;;;10.90;60.90;;;6.00;98.14;92337.56;4912776;29;20143;-50
2023/11/05 01:27:17;;;;;;;;;;;10.80;61.00;;;5.83;97.78;92334.13;4914308;29;20013;-48
2023/11/05 01:29:43;;;;;;;;;;;10.70;61.00;;;5.60;99.99;92336.19;4911264;29;20401;-49
2023/11/05 01:32:09;;;;;;;;;;;10.60;61.00;;;5.34;100.00;92334.34;4903522;29;19911;-49
2023/11/05 01:34:35;;;;;;;;;;;10.40;60.90;;;5.23;100.00;92343.63;4910632;29;20322;-51
2023/11/05 01:37:02;;;;;;;;;;;10.30;61.00;;;5.13;100.00;92339.44;4904882;29;19917;-53
2023/11/05 01:39:28;;;;;;;;;;;10.10;61.30;;;5.08;100.00;92348.28;4912157;29;20013;-48
2023/11/05 01:41:53;;;;;;;;;;;10.00;61.50;;;5.06;100.00;92344.41;4906489;29;20326;-51
2023/11/05 01:44:19;;;;;;;;;;;9.90;61.80;;;5.01;100.00;92340.03;4906667;29;19933;-54
2023/11/05 01:46:47;;;;;;;;;;;9.90;62.00;;;4.92;100.00;92335.84;4906079;29;19937;-53
2023/11/05 01:49:13;;;;;;;;;;;9.80;62.10;;;4.81;100.00;92328.22;4904985;29;19915;-56
2023/11/05 01:51:41;;;;;;;;;;;9.70;62.20;;;4.77;100.00;92322.00;4908841;29;19914;-54
2023/11/05 01:54:08;;;;;;;;;;;9.70;62.40;;;4.71;100.00;92325.09;4907747;29;19999;-55
2023/11/05 01:56:36;;;;;;;;;;;9.70;62.40;;;4.46;100.00;92306.28;4906810;29;19957;-50
2023/11/05 01:59:03;;;;;;;;;;;9.60;62.40;;;4.40;100.00;92299.59;4931578;29;19914;-51
2023/11/05 02:01:29;;;;;;;;;;;9.50;62.40;;;4.33;100.00;92296.63;4916828;29;19982;-54
2023/11/05 02:03:55;;;;;;;;;;;9.40;62.30;;;4.17;100.00;92283.84;4909157;29;20045;-50
2023/11/05 02:06:21;;;;;;;;;;;9.30;62.40;;;4.11;100.00;92279.81;4910381;29;19922;-56
2023/11/05 02:08:47;;;;;;;;;;;9.20;62.50;;;4.13;100.00;92266.31;4907953;29;19961;-48
2023/11/05 02:11:13;;;;;;;;;;;9.10;62.60;;;4.13;100.00;92242.59;4908134;29;20348;-49
2023/11/05 02:13:51;;;;;;;;;;;9.00;62.80;;;4.10;100.00;92246.63;4908708;29;19957;-49
2023/11/05 02:16:19;;;;;;;;;;;9.00;63.00;;;4.01;100.00;92235.31;4906486;29;19945;-49
2023/11/05 02:18:47;;;;;;;;;;;8.90;63.00;;;3.94;100.00;92230.44;4908488;29;19964;-55
2023/11/05 02:21:25;;;;;;;;;;;8.80;63.20;;;3.84;100.00;92224.69;4906026;29;20317;-56
2023/11/05 02:23:51;;;;;;;;;;;8.80;63.30;;;3.84;100.00;92222.84;4909007;29;20036;-58
2023/11/05 02:26:17;;;;;;;;;;;8.70;63.30;;;3.75;100.00;92216.75;4909158;29;19915;-57
2023/11/05 02:28:43;;;;;;;;;;;8.70;63.40;;;3.70;100.00;92216.91;4910266;29;20378;-55
2023/11/05 02:31:09;;;;;;;;;;;8.60;63.50;;;3.74;100.00;92232.88;4909138;29;20002;-57
2023/11/05 02:33:44;;;;;;;;;;;8.60;63.70;;;3.70;100.00;92222.94;4905223;29;20061;-56
2023/11/05 02:36:11;;;;;;;;;;;8.60;63.90;;;3.67;100.00;92223.53;4906810;29;19988;-57
2023/11/05 02:38:38;;;;;;;;;;;8.50;63.80;;;3.64;100.00;92228.66;4916431;29;19911;-58
2023/11/05 02:41:10;;;;;;;;;;;8.50;63.90;;;3.61;100.00;92227.38;4907364;29;19946;-55
2023/11/05 02:43:36;;;;;;;;;;;8.50;64.00;;;3.58;100.00;92224.59;4909684;29;20382;-54
2023/11/05 02:46:02;;;;;;;;;;;8.40;64.90;;;3.62;100.00;92223.66;4909327;29;19973;-57
2023/11/05 02:48:28;;;;;;;;;;;8.40;64.30;;;3.64;100.00;92229.41;4909108;29;20014;-53
2023/11/05 02:50:54;;;;;;;;;;;8.40;64.40;;;3.64;100.00;92218.88;4911671;29;20426;-53
2023/11/05 02:53:21;;;;;;;;;;;8.40;64.40;;;3.63;100.00;92219.94;4913051;29;19911;-53
2023/11/05 02:55:48;;;;;;;;;;;8.40;64.50;;;3.62;100.00;92221.03;4902354;29;19911;-51
2023/11/05 02:58:15;;;;;;;;;;;8.40;64.50;;;3.59;100.00;92207.72;4905268;29;20385;-54
2023/11/05 03:00:41;;;;;;;;;;;8.40;64.60;;;3.59;100.00;92219.00;4905694;29;20267;-56
2023/11/05 03:03:12;;;;;;;;;;;8.40;64.70;;;3.69;100.00;92208.22;4905175;29;19918;-55
2023/11/05 03:05:42;;;;;;;;;;;8.40;65.00;;;3.82;100.00;92205.78;4907608;29;20294;-53
2023/11/05 03:08:09;;;;;;;;;;;8.50;65.20;;;4.02;100.00;92207.09;4906087;29;19911;-56
2023/11/05 03:10:35;;;;;;;;;;;8.60;65.50;;;4.14;100.00;92217.84;4905365;29;20405;-54
2023/11/05 03:13:02;;;;;;;;;;;8.70;65.60;;;4.26;100.00;92218.03;4907952;29;19911;-57
2023/11/05 03:15:27;;;;;;;;;;;8.80;65.70;;;4.34;100.00;92221.75;4905324;29;19918;-57
2023/11/05 03:17:53;;;;;;;;;;;8.90;65.70;;;4.42;100.00;92231.53;4909411;29;19919;-58
2023/11/05 03:20:19;;;;;;;;;;;9.00;65.60;;;4.50;100.00;92240.53;4905047;29;19911;-58
2023/11/05 03:22:46;;;;;;;;;;;9.10;65.50;;;4.54;100.00;92234.31;4907993;29;19910;-56
2023/11/05 03:25:11;;;;;;;;;;;9.20;65.50;;;4.59;100.00;92242.09;4903086;29;19914;-56
2023/11/05 03:27:38;;;;;;;;;;;9.30;65.40;;;4.65;100.00;92240.09;4906945;29;21663;-58
2023/11/05 03:30:05;;;;;;;;;;;9.40;65.30;;;4.71;100.00;92246.00;4907192;29;19959;-58
2023/11/05 03:32:31;;;;;;;;;;;9.40;65.20;;;4.77;100.00;92242.13;4908556;29;19964;-55
2023/11/05 03:34:58;;;;;;;;;;;9.50;65.20;;;4.82;100.00;92229.56;4912564;29;19917;-56
2023/11/05 03:37:24;;;;;;;;;;;9.60;65.20;;;4.88;100.00;92214.34;4901851;29;19979;-56
2023/11/05 03:39:50;;;;;;;;;;;9.60;65.10;;;4.91;100.00;92226.16;4908590;29;19918;-57
2023/11/05 03:42:16;;;;;;;;;;;9.70;65.00;;;5.00;100.00;92216.38;4908337;29;19910;-59
2023/11/05 03:44:42;;;;;;;;;;;9.80;65.10;;;5.03;100.00;92242.91;4908388;29;19915;-53
2023/11/05 03:47:09;;;;;;;;;;;9.80;65.80;;;5.09;100.00;92249.56;4924415;29;20401;-58
2023/11/05 03:49:35;;;;;;;;;;;9.90;65.00;;;5.09;100.00;92262.78;4912780;29;20254;-54
2023/11/05 03:52:03;;;;;;;;;;;9.80;64.90;;;5.10;100.00;92272.22;4915287;29;19918;-58
2023/11/05 03:54:29;;;;;;;;;;;9.90;64.90;;;5.09;100.00;92291.03;4910139;29;19911;-58
2023/11/05 03:56:57;;;;;;;;;;;9.90;64.80;;;5.08;100.00;92298.16;4904053;29;19910;-59
2023/11/05 03:59:23;;;;;;;;;;;9.90;64.70;;;5.09;100.00;92289.16;4914578;29;19918;-54
2023/11/05 04:01:50;;;;;;;;;;;9.90;64.70;;;5.13;100.00;92297.22;4904995;29;19917;-53
2023/11/05 04:04:16;;;;;;;;;;;9.90;64.70;;;5.17;100.00;92287.63;4911593;29;19949;-57
2023/11/05 04:06:42;;;;;;;;;;;9.90;64.80;;;5.22;100.00;92291.94;4907291;29;19946;-54
2023/11/05 04:09:10;;;;;;;;;;;9.90;64.90;;;5.27;100.00;92295.22;4903978;29;28072;-58
2023/11/05 04:11:36;;;;;;;;;;;10.00;65.00;;;5.29;100.00;92290.38;4903965;29;19910;-56
2023/11/05 04:14:03;;;;;;;;;;;10.00;65.00;;;5.31;100.00;92282.94;4904651;29;20290;-58
2023/11/05 04:16:29;;;;;;;;;;;10.00;65.00;;;5.36;100.00;92284.66;4905250;29;20373;-57
2023/11/05 04:18:57;;;;;;;;;;;10.00;65.00;;;5.41;100.00;92284.47;4905223;29;19922;-58
2023/11/05 04:21:23;;;;;;;;;;;10.00;65.00;;;5.57;100.00;92292.69;4907069;29;19911;-57
2023/11/05 04:23:49;;;;;;;;;;;10.10;65.30;;;5.70;100.00;92298.88;4906676;29;19911;-59
2023/11/05 04:26:15;;;;;;;;;;;10.20;65.50;;;5.79;100.00;92297.78;4906761;29;19918;-58
2023/11/05 04:28:41;;;;;;;;;;;10.30;65.50;;;5.88;100.00;92297.78;4908124;29;19910;-58
2023/11/05 04:31:07;;;;;;;;;;;10.30;65.50;;;5.91;100.00;92293.72;4907177;29;19910;-56
2023/11/05 04:33:32;;;;;;;;;;;10.40;65.40;;;5.93;100.00;92300.28;4902537;29;19915;-56
2023/11/05 04:35:58;;;;;;;;;;;10.50;65.40;;;5.93;100.00;92292.34;4904054;29;19915;-55
2023/11/05 04:38:24;;;;;;;;;;;10.50;65.30;;;5.97;100.00;92295.91;4904058;29;19911;-57
2023/11/05 04:40:50;;;;;;;;;;;10.50;65.10;;;5.98;100.00;92299.31;4910510;29;19911;-57
2023/11/05 04:43:17;;;;;;;;;;;10.50;65.10;;;6.00;100.00;92300.56;4904254;29;19911;-54
2023/11/05 04:45:43;;;;;;;;;;;10.60;65.20;;;6.05;100.00;92309.41;4909285;29;19914;-53
2023/11/05 04:48:09;;;;;;;;;;;10.60;65.20;;;6.08;100.00;92292.91;4907065;29;19917;-54
2023/11/05 04:50:34;;;;;;;;;;;10.70;65.20;;;6.10;100.00;92288.88;4906620;29;19910;-57
2023/11/05 04:53:00;;;;;;;;;;;10.70;65.10;;;6.11;100.00;92285.16;4908096;29;19911;-58
2023/11/05 04:55:26;;;;;;;;;;;10.70;65.00;;;6.13;100.00;92279.53;4906380;29;20020;-59
2023/11/05 04:57:52;;;;;;;;;;;10.70;64.90;;;6.11;100.00;92277.22;4901662;29;19918;-57
2023/11/05 05:00:18;;;;;;;;;;;10.70;64.90;;;6.12;100.00;92270.84;4903622;29;20366;-58
2023/11/05 05:02:44;;;;;;;;;;;10.80;64.90;;;6.17;100.00;92261.97;4905267;29;19910;-53
2023/11/05 05:05:10;;;;;;;;;;;10.80;65.00;;;6.21;100.00;92254.97;4902510;29;19915;-57
2023/11/05 05:07:37;;;;;;;;;;;10.80;65.00;;;6.21;100.00;92250.44;4903931;29;19918;-52
2023/11/05 05:10:05;;;;;;;;;;;10.80;65.00;;;6.25;100.00;92238.13;4908703;29;19914;-57
2023/11/05 05:12:33;;;;;;;;;;;10.90;65.00;;;6.31;100.00;92251.19;4905413;29;19915;-55
2023/11/05 05:15:03;;;;;;;;;;;10.90;65.00;;;6.37;100.00;92253.31;4902968;29;19911;-56
2023/11/05 05:17:29;;;;;;;;;;;10.90;65.00;;;6.40;100.00;92257.97;4905682;29;20001;-52
2023/11/05 05:19:55;;;;;;;;;;;10.90;65.00;;;6.44;100.00;92256.25;4903757;29;20041;-56
2023/11/05 05:22:21;;;;;;;;;;;11.00;65.10;;;6.50;100.00;92264.78;4903558;29;20045;-58
2023/11/05 05:24:47;;;;;;;;;;;11.00;65.00;;;6.52;100.00;92265.22;4910289;29;19915;-57
2023/11/05 05:27:12;;;;;;;;;;;11.00;65.00;;;6.56;100.00;92268.00;4910683;29;19911;-56
2023/11/05 05:29:38;;;;;;;;;;;11.10;65.00;;;6.55;100.00;92277.81;4917020;29;20413;-52
2023/11/05 05:32:04;;;;;;;;;;;11.10;65.00;;;6.56;100.00;92289.94;4905576;29;20290;-58
2023/11/05 05:34:30;;;;;;;;;;;11.10;64.90;;;6.56;100.00;92283.88;4928902;29;19911;-55
2023/11/05 05:36:56;;;;;;;;;;;11.20;65.00;;;6.59;100.00;92293.81;4910280;29;19921;-55
2023/11/05 05:39:22;;;;;;;;;;;11.20;64.90;;;6.60;100.00;92282.91;4904424;29;20445;-52
2023/11/05 05:41:48;;;;;;;;;;;11.20;64.90;;;6.63;100.00;92287.56;4910108;29;19911;-54
2023/11/05 05:44:14;;;;;;;;;;;11.20;64.80;;;6.61;100.00;92292.41;4906902;29;19911;-57
2023/11/05 05:46:41;;;;;;;;;;;11.20;64.80;;;6.59;100.00;92291.94;4912833;29;19919;-58
2023/11/05 05:49:07;;;;;;;;;;;11.30;64.90;;;6.61;100.00;92295.06;4918158;29;20337;-57
2023/11/05 05:51:33;;;;;;;;;;;11.20;64.80;;;6.60;100.00;92296.13;4916989;29;19937;-58
2023/11/05 05:53:58;;;;;;;;;;;11.20;64.90;;;6.63;100.00;92298.13;4917719;29;19910;-56
2023/11/05 05:56:26;;;;;;;;;;;11.20;64.80;;;6.62;100.00;92301.88;4917189;29;19911;-59
2023/11/05 05:58:52;;;;;;;;;;;11.20;64.90;;;6.65;100.00;92311.84;4916717;29;20045;-57
2023/11/05 06:01:18;;;;;;;;;;;11.20;64.90;;;6.66;100.00;92317.88;4917644;29;20362;-57
2023/11/05 06:03:44;;;;;;;;;;;11.30;65.00;;;6.67;100.00;92316.78;4917166;29;19917;-59
2023/11/05 06:06:10;;;;;;;;;;;11.30;65.10;;;6.70;100.00;92321.44;4917225;29;19918;-56
2023/11/05 06:08:37;;;;;;;;;;;11.30;65.10;;;6.73;100.00;92311.00;4917548;29;20381;-54
2023/11/05 06:11:03;;;;;;;;;;;11.30;65.10;;;6.76;100.00;92325.44;4916881;29;19915;-58
2023/11/05 06:13:29;;;;;;;;;;;11.30;65.10;;;6.77;100.00;92328.88;4914542;29;19954;-56
2023/11/05 06:15:54;;;;;;;;;;;11.30;65.10;;;6.76;100.00;92330.75;4916281;29;20013;-56
2023/11/05 06:18:20;;;;;;;;;;;11.40;65.10;;;6.78;100.00;92319.88;4917514;29;19926;-56
2023/11/05 06:20:46;;;;;;;;;;;11.40;65.10;;;6.78;100.00;92310.06;4917365;29;19911;-55
2023/11/05 06:23:12;;;;;;;;;;;11.40;65.10;;;6.81;100.00;92309.41;4916967;29;19914;-57
2023/11/05 06:25:38;;;;;;;;;;;11.40;65.10;;;6.82;100.00;92313.59;4916358;29;19919;-58
2023/11/05 06:28:03;;;;;;;;;;;11.40;65.20;;;6.84;100.00;92319.34;4916436;29;20403;-57
2023/11/05 06:30:29;;;;;;;;;;;11.40;65.10;;;6.84;100.00;92329.94;4917047;29;19918;-57
2023/11/05 06:32:55;;;;;;;;;;;11.50;65.20;;;6.86;100.00;92326.97;4917366;29;19945;-59
2023/11/05 06:35:21;;;;;;;;;;;11.50;65.20;;;6.86;100.00;92324.31;4915019;29;19992;-58
2023/11/05 06:37:46;;;;;;;;;;;11.50;65.20;;;6.85;100.00;92326.19;4916904;29;19917;-58
2023/11/05 06:40:12;;;;;;;;;;;11.50;65.20;;;6.88;100.00;92328.19;4916478;29;20009;-58
2023/11/05 06:42:39;;;;;;;;;;;11.50;65.10;;;6.86;100.00;92346.28;4917258;29;19911;-56
2023/11/05 06:45:06;;;;;;;;;;;11.50;65.10;;;6.89;100.00;92358.06;4916881;29;19915;-58
2023/11/05 06:47:32;;;;;;;;;;;11.60;65.20;;;6.89;100.00;92358.06;4916167;29;19925;-59
2023/11/05 06:49:59;;;;;;;;;;;11.60;65.20;;;6.91;100.00;92371.75;4916935;29;19938;-57
2023/11/05 06:52:26;;;;;;;;;;;11.60;65.20;;;6.93;100.00;92374.88;4916144;29;19914;-59
2023/11/05 06:54:52;;;;;;;;;;;11.60;65.20;;;6.93;100.00;92385.47;4915973;29;19919;-59
2023/11/05 06:57:18;;;;;;;;;;;11.60;65.20;;;6.93;100.00;92388.88;4917150;29;19910;-59
2023/11/05 06:59:44;;;;;;;;;;;11.60;65.30;;;7.02;100.00;92391.50;4915462;29;20358;-58
2023/11/05 07:02:13;;;;;;;;;;;11.70;65.30;;;7.15;100.00;92395.00;4916894;29;19917;-58
2023/11/05 07:04:38;;;;;;;;;;;11.80;65.40;;;7.25;100.00;92381.38;4914620;29;19911;-56
2023/11/05 07:07:05;;;;;;;;;;;11.90;65.40;;;7.35;100.00;92398.78;4906209;29;19918;-58
2023/11/05 07:09:31;;;;;;;;;;;11.90;65.20;;;7.38;100.00;92398.91;4904108;29;19958;-59
2023/11/05 07:11:57;;;;;;;;;;;12.00;65.20;;;7.41;100.00;92411.50;4904562;29;19922;-57
2023/11/05 07:14:23;;;;;;;;;;;12.10;65.10;;;7.51;100.00;92412.22;4905125;29;19911;-57
2023/11/05 07:16:49;;;;;;;;;;;12.20;65.00;;;7.55;100.00;92415.75;4913279;29;20030;-59
2023/11/05 07:19:14;;;;;;;;;;;12.30;65.00;;;7.56;100.00;92436.66;4907659;29;19911;-55
2023/11/05 07:21:43;;;;;;;;;;;12.40;64.90;;;7.59;100.00;92446.59;4907757;29;19962;-59
2023/11/05 07:24:09;;;;;;;;;;;12.40;64.80;;;7.65;100.00;92461.22;4927210;29;19991;-55
2023/11/05 07:26:35;;;;;;;;;;;12.40;64.70;;;7.61;100.00;92462.94;4905049;29;19922;-56
2023/11/05 07:29:01;;;;;;;;;;;12.40;64.60;;;7.67;100.00;92476.78;4905938;29;19938;-58
2023/11/05 07:31:27;;;;;;;;;;;12.50;64.70;;;7.72;100.00;92481.91;4905802;29;19915;-59
2023/11/05 07:33:52;;;;;;;;;;;12.50;64.70;;;7.79;100.00;92476.09;4907531;29;19999;-58
2023/11/05 07:36:18;;;;;;;;;;;12.50;64.70;;;7.86;100.00;92479.75;4907862;29;20373;-57
2023/11/05 07:38:44;;;;;;;;;;;12.50;64.70;;;7.91;100.00;92478.81;4902044;29;19912;-56
2023/11/05 07:41:11;;;;;;;;;;;12.60;64.70;;;7.94;100.00;92483.47;4914455;29;19933;-54
2023/11/05 07:43:39;;;;;;;;;;;12.60;64.70;;;7.97;100.00;92493.41;4902380;29;20081;-56
2023/11/05 07:46:07;;;;;;;;;;;12.60;64.80;;;8.01;100.00;92504.91;4907585;29;19915;-58
2023/11/05 07:48:33;;;;;;;;;;;12.60;64.90;;;7.98;100.00;92504.78;4907478;29;20034;-58
2023/11/05 07:50:59;;;;;;;;;;;12.60;64.90;;;7.96;100.00;92515.72;4905352;29;20009;-58
2023/11/05 07:53:25;;;;;;;;;;;12.60;65.00;;;7.94;100.00;92506.53;4906759;29;20057;-58
2023/11/05 07:55:50;;;;;;;;;;;12.60;65.20;;;7.96;100.00;92521.03;4908013;29;19918;-58
2023/11/05 07:58:16;;;;;;;;;;;12.50;65.20;;;7.95;100.00;92526.63;4903394;29;20353;-60
2023/11/05 08:00:45;;;;;;;;;;;12.60;65.30;;;7.89;100.00;92534.00;4902742;29;19922;-57
2023/11/05 08:03:11;;;;;;;;;;;12.60;65.60;;;7.90;100.00;92554.13;4909016;29;20373;-60
2023/11/05 08:05:36;;;;;;;;;;;12.50;65.80;;;7.91;100.00;92573.44;4914053;29;19914;-57
2023/11/05 08:08:02;;;;;;;;;;;12.50;66.00;;;7.78;100.00;92560.09;4866381;28;22282;-58
2023/11/05 08:10:28;;;;;;;;;;;12.50;66.10;;;7.68;100.00;92560.47;4906009;29;19938;-58
2023/11/05 08:12:54;;;;;;;;;;;12.40;65.90;;;7.61;100.00;92576.84;4913412;29;19941;-59
2023/11/05 08:15:20;;;;;;;;;;;12.40;66.00;;;7.54;100.00;92550.06;4907303;29;20355;-58
2023/11/05 08:17:47;;;;;;;;;;;12.30;66.10;;;7.51;100.00;92573.78;4905644;29;19919;-53
2023/11/05 08:20:14;;;;;;;;;;;12.20;66.10;;;7.44;100.00;92586.75;4905453;29;20370;-51
2023/11/05 08:22:42;;;;;;;;;;;12.10;66.10;;;7.30;100.00;92663.72;4901367;29;19911;-51
2023/11/05 08:25:12;;;;;;;;;;;12.00;66.30;;;7.20;100.00;92654.22;4905490;29;19918;-52
2023/11/05 08:27:42;;;;;;;;;;;11.90;66.40;;;6.99;100.00;92656.78;4912834;29;19911;-53
2023/11/05 08:30:13;;;;;;;;;;;11.80;66.50;;;6.92;100.00;92662.50;4906920;29;20014;-50
2023/11/05 08:32:39;;;;;;;;;;;11.80;66.70;;;6.90;100.00;92663.94;4912233;29;20013;-49
2023/11/05 08:35:06;;;;;;;;;;;11.70;66.80;;;6.88;100.00;92655.53;4907393;29;20463;-48
2023/11/05 08:37:31;;;;;;;;;;;11.60;67.00;;;6.79;100.00;92660.81;4904114;29;19946;-48
2023/11/05 08:39:58;;;;;;;;;;;11.60;67.10;;;6.72;100.00;92657.84;4906308;29;20480;-48
2023/11/05 08:42:24;;;;;;;;;;;11.50;67.40;;;6.78;100.00;92667.19;4911297;29;19950;-50
2023/11/05 08:44:50;;;;;;;;;;;11.50;67.60;;;6.76;100.00;92671.22;4914586;29;20398;-53
2023/11/05 08:47:16;;;;;;;;;;;11.50;67.80;;;6.77;100.00;92681.53;4913073;29;20305;-51
2023/11/05 08:49:42;;;;;;;;;;;11.40;67.80;;;6.78;100.00;92688.34;4913722;29;19942;-51
2023/11/05 08:52:07;;;;;;;;;;;11.40;67.90;;;6.78;100.00;92693.66;4913353;29;19911;-50
2023/11/05 08:54:34;;;;;;;;;;;11.40;68.00;;;6.79;100.00;92692.56;4913850;29;19946;-52
2023/11/05 08:57:00;;;;;;;;;;;11.50;68.10;;;6.97;100.00;92706.56;4913399;29;20290;-50
2023/11/05 08:59:29;;;;;;;;;;;11.80;68.20;;;7.05;100.00;92702.34;4911333;29;19997;-51
2023/11/05 09:01:55;;;;;;;;;;;12.00;68.80;;;7.18;100.00;92704.88;4913651;29;20389;-50
2023/11/05 09:04:23;;;;;;;;;;;12.10;67.90;;;7.21;100.00;92703.47;4913156;29;19911;-51
2023/11/05 09:06:50;;;;;;;;;;;12.30;67.90;;;7.28;100.00;92714.34;4913238;29;20309;-51
2023/11/05 09:09:16;;;;;;;;;;;12.40;67.70;;;7.47;100.00;92710.59;4914866;29;19974;-53
2023/11/05 09:11:42;;;;;;;;;;;12.50;67.70;;;7.53;100.00;92714.63;4912695;29;20429;-52
2023/11/05 09:14:08;;;;;;;;;;;12.60;67.80;;;7.59;100.00;92730.03;4916688;29;19946;-50
2023/11/05 09:16:33;;;;;;;;;;;12.70;67.80;;;7.57;100.00;92731.44;4912534;29;19961;-54
2023/11/05 09:18:59;;;;;;;;;;;12.80;67.90;;;7.63;100.00;92740.78;4913977;29;19958;-51
2023/11/05 09:21:27;;;;;;;;;;;12.80;67.80;;;7.76;100.00;92742.47;4913953;29;19918;-56
2023/11/05 09:23:52;;;;;;;;;;;13.00;67.70;;;7.86;100.00;92746.66;4913915;29;19910;-57
2023/11/05 09:26:19;;;;;;;;;;;13.10;67.60;;;7.92;100.00;92763.94;4914487;29;20011;-54
2023/11/05 09:28:45;;;;;;;;;;;13.20;67.60;;;7.95;100.00;92759.88;4913460;29;19914;-56
2023/11/05 09:31:12;;;;;;;;;;;13.30;67.50;;;8.06;100.00;92763.75;4913866;29;20374;-52
2023/11/05 09:33:38;;;;;;;;;;;13.40;67.50;;;8.09;100.00;92774.50;4913411;29;19914;-57
2023/11/05 09:36:05;;;;;;;;;;;13.50;67.40;;;8.19;100.00;92770.72;4914409;29;19969;-52
2023/11/05 09:38:33;;;;;;;;;;;13.50;67.20;;;8.22;100.00;92772.75;4914666;29;20376;-57
2023/11/05 09:40:59;;;;;;;;;;;13.60;67.30;;;8.34;100.00;92785.34;4911297;29;19925;-56
2023/11/05 09:43:25;;;;;;;;;;;13.60;67.20;;;8.38;100.00;92781.00;4920645;29;20520;-56
2023/11/05 09:45:55;;;;;;;;;;;13.70;68.00;;;8.51;100.00;92780.00;4912580;28;20384;-55
2023/11/05 09:48:23;;;;;;;;;;;13.80;67.20;;;8.61;100.00;92783.38;4944134;29;20017;-54
2023/11/05 09:50:49;;;;;;;;;;;13.90;67.20;;;8.71;100.00;92783.00;4913740;29;19911;-55
2023/11/05 09:53:17;;;;;;;;;;;13.90;67.10;;;8.69;100.00;92786.00;4912504;29;20033;-56
2023/11/05 09:55:47;;;;;;;;;;;14.10;67.10;;;8.77;100.00;92789.69;4903214;29;19911;-53
2023/11/05 09:58:14;;;;;;;;;;;14.10;67.00;;;8.77;100.00;92779.06;4908114;29;19957;-58
2023/11/05 10:00:40;;;;;;;;;;;14.10;66.90;;;8.78;100.00;92788.63;4903591;29;19918;-57
2023/11/05 10:03:09;;;;;;;;;;;14.20;66.80;;;8.79;100.00;92792.81;4903618;29;19911;-57
2023/11/05 10:05:42;;;;;;;;;;;14.10;66.60;;;8.80;100.00;92797.03;4904495;29;19915;-53
2023/11/05 10:08:10;;;;;;;;;;;14.10;66.70;;;8.82;100.00;92805.44;4902208;29;20318;-58
2023/11/05 10:10:39;;;;;;;;;;;14.00;66.70;;;8.86;100.00;92805.59;4911718;29;20259;-58
2023/11/05 10:13:06;;;;;;;;;;;13.90;66.80;;;8.89;100.00;92816.34;4911408;29;19950;-58
2023/11/05 10:15:40;;;;;;;;;;;13.90;66.90;;;8.95;100.00;92828.31;4909956;29;19910;-52
2023/11/05 10:18:13;;;;;;;;;;;14.00;67.00;;;9.08;100.00;92841.69;4912558;29;19919;-55
2023/11/05 10:20:59;;;;;;;;;;;14.10;67.00;;;9.16;100.00;92844.31;4906607;29;20462;-52
2023/11/05 10:23:26;;;;;;;;;;;14.10;66.80;;;9.21;100.00;92860.06;4905333;29;19911;-53
2023/11/05 10:25:54;;;;;;;;;;;14.10;66.70;;;9.29;100.00;92874.38;4945116;28;20365;-50
2023/11/05 10:28:22;;;;;;;;;;;14.20;66.70;;;9.43;100.00;92880.25;4912426;29;19911;-55
2023/11/05 10:30:51;;;;;;;;;;;14.40;66.70;;;9.52;100.00;92872.19;4908882;29;19914;-51
2023/11/05 10:33:18;;;;;;;;;;;14.60;66.60;;;9.52;100.00;92860.78;4906528;29;19915;-54
2023/11/05 10:35:44;;;;;;;;;;;14.70;66.40;;;9.56;100.00;92870.47;4912816;29;19918;-50
2023/11/05 10:38:18;;;;;;;;;;;14.80;66.20;;;9.55;100.00;92882.19;4905846;29;20063;-53
2023/11/05 10:40:47;;;;;;;;;;;14.80;66.00;;;9.58;100.00;92896.72;4908123;29;19934;-53
2023/11/05 10:43:14;;;;;;;;;;;14.80;65.80;;;9.51;100.00;92905.19;4911989;29;19911;-55
2023/11/05 10:45:42;;;;;;;;;;;14.70;65.60;;;9.53;100.00;92910.19;4907774;29;19961;-58
2023/11/05 10:48:09;;;;;;;;;;;14.70;65.50;;;9.52;100.00;92906.75;4946934;28;19958;-54
2023/11/05 10:50:40;;;;;;;;;;;14.80;65.50;;;9.46;100.00;92908.03;4909128;29;19949;-57
2023/11/05 10:53:07;;;;;;;;;;;14.90;65.40;;;9.54;100.00;92911.75;4906937;29;19918;-56
2023/11/05 10:55:37;;;;;;;;;;;14.90;65.40;;;9.46;100.00;92930.09;4916256;29;19911;-56
2023/11/05 10:58:07;;;;;;;;;;;14.90;65.40;;;9.44;100.00;92932.28;4908385;29;19911;-53
2023/11/05 11:00:33;;;;;;;;;;;15.00;65.40;;;9.53;100.00;92926.94;4902051;29;19915;-56
2023/11/05 11:03:10;;;;;;;;;;;15.00;65.40;;;9.45;100.00;92936.47;4904772;29;20281;-56
2023/11/05 11:05:46;;;;;;;;;;;14.90;65.30;;;9.49;100.00;92945.41;4902167;29;19915;-56
2023/11/05 11:08:18;;;;;;;;;;;14.90;65.40;;;9.54;100.00;92938.31;4908054;29;20001;-56
2023/11/05 11:10:50;;;;;;;;;;;14.80;65.50;;;9.43;100.00;92943.22;4915756;29;19910;-56
2023/11/05 11:13:30;;;;;;;;;;;14.90;65.50;;;9.49;100.00;92932.09;4909722;29;20370;-55
2023/11/05 11:16:01;;;;;;;;;;;14.90;65.40;;;9.58;100.00;92952.53;4914185;29;20219;-55
2023/11/05 11:18:32;;;;;;;;;;;15.00;65.40;;;9.67;100.00;92940.72;4903305;29;19923;-55